PRLJT EIDW-EGNS
Flight info
| Callsign | PRLJT |
|---|---|
| Flight time | 0h 19m |
| Altitude | 17000 |
| Route | LIFFY4E LIFFY DCT BOFUM DCT BAGSO DCT BOYNE Y911 NOCAD |
| Aircraft | E190/M-SDE1E2E3FGHIJ3J4J7P2RWXY/LB1D1G1 |
Departure
| Time | 2026-04-21 19:04 |
|---|---|
| Airport | Dublin Airport (EIDW) |
Arrival
| Time | 2026-04-21 19:23 |
|---|---|
| Airport | Isle of Man Airport (EGNS) |
| Time | Latitude | Longitude | Altitude | Speed | Heading |
|---|---|---|---|---|---|
| 2026-04-21 18:35 | 53.42359 | -6.24533 | 200 ft | 0 kts | 136° |
| 2026-04-21 18:47 | 53.42359 | -6.24534 | 201 ft | 0 kts | 136° |
| 2026-04-21 18:50 | 53.42359 | -6.24533 | 201 ft | 0 kts | 136° |
| 2026-04-21 18:51 | 53.42365 | -6.24542 | 201 ft | 2 kts | 136° |
| 2026-04-21 18:51 | 53.42376 | -6.24561 | 201 ft | 2 kts | 136° |
| 2026-04-21 18:51 | 53.42387 | -6.24579 | 202 ft | 2 kts | 136° |
| 2026-04-21 18:51 | 53.42398 | -6.24597 | 202 ft | 2 kts | 147° |
| 2026-04-21 18:52 | 53.42411 | -6.24605 | 202 ft | 2 kts | 176° |
| 2026-04-21 18:52 | 53.42426 | -6.24601 | 203 ft | 2 kts | 203° |
| 2026-04-21 18:52 | 53.42439 | -6.24587 | 204 ft | 2 kts | 230° |
| 2026-04-21 18:52 | 53.42443 | -6.24577 | 204 ft | 1 kts | 245° |
| 2026-04-21 18:53 | 53.42445 | -6.24570 | 205 ft | 0 kts | 243° |
| 2026-04-21 18:54 | 53.42441 | -6.24581 | 204 ft | 3 kts | 240° |
| 2026-04-21 18:54 | 53.42420 | -6.24646 | 203 ft | 8 kts | 249° |
| 2026-04-21 18:55 | 53.42423 | -6.24719 | 202 ft | 10 kts | 300° |
| 2026-04-21 18:55 | 53.42507 | -6.24803 | 203 ft | 10 kts | 339° |
| 2026-04-21 18:55 | 53.42576 | -6.24850 | 205 ft | 10 kts | 338° |
| 2026-04-21 18:55 | 53.42641 | -6.24898 | 207 ft | 10 kts | 333° |
| 2026-04-21 18:56 | 53.42702 | -6.24964 | 207 ft | 11 kts | 329° |
| 2026-04-21 18:56 | 53.42770 | -6.25041 | 206 ft | 12 kts | 324° |
| 2026-04-21 18:56 | 53.42798 | -6.25179 | 206 ft | 14 kts | 272° |
| 2026-04-21 18:56 | 53.42767 | -6.25308 | 206 ft | 11 kts | 225° |
| 2026-04-21 18:57 | 53.42754 | -6.25329 | 206 ft | 0 kts | 225° |
| 2026-04-21 18:57 | 53.42744 | -6.25345 | 206 ft | 3 kts | 225° |
| 2026-04-21 18:57 | 53.42719 | -6.25389 | 207 ft | 7 kts | 226° |
| 2026-04-21 18:57 | 53.42664 | -6.25483 | 206 ft | 15 kts | 225° |
| 2026-04-21 18:58 | 53.42574 | -6.25633 | 209 ft | 21 kts | 225° |
| 2026-04-21 18:58 | 53.42453 | -6.25841 | 209 ft | 28 kts | 227° |
| 2026-04-21 18:58 | 53.42304 | -6.26100 | 212 ft | 33 kts | 233° |
| 2026-04-21 18:58 | 53.42279 | -6.26471 | 219 ft | 32 kts | 274° |
| 2026-04-21 18:59 | 53.42297 | -6.26827 | 225 ft | 30 kts | 275° |
| 2026-04-21 18:59 | 53.42316 | -6.27185 | 226 ft | 31 kts | 275° |
| 2026-04-21 18:59 | 53.42337 | -6.27552 | 229 ft | 32 kts | 276° |
| 2026-04-21 18:59 | 53.42358 | -6.27933 | 233 ft | 33 kts | 275° |
| 2026-04-21 19:00 | 53.42382 | -6.28322 | 237 ft | 33 kts | 272° |
| 2026-04-21 19:00 | 53.42401 | -6.28708 | 240 ft | 32 kts | 275° |
| 2026-04-21 19:00 | 53.42413 | -6.28909 | 244 ft | 8 kts | 274° |
| 2026-04-21 19:00 | 53.42413 | -6.28930 | 245 ft | 0 kts | 274° |
| 2026-04-21 19:01 | 53.42413 | -6.28931 | 245 ft | 0 kts | 275° |
| 2026-04-21 19:01 | 53.42414 | -6.28943 | 245 ft | 2 kts | 274° |
| 2026-04-21 19:01 | 53.42410 | -6.28999 | 246 ft | 6 kts | 249° |
| 2026-04-21 19:01 | 53.42372 | -6.29066 | 247 ft | 8 kts | 207° |
| 2026-04-21 19:02 | 53.42348 | -6.29077 | 247 ft | 0 kts | 186° |
| 2026-04-21 19:02 | 53.42345 | -6.29077 | 247 ft | 2 kts | 184° |
| 2026-04-21 19:02 | 53.42306 | -6.29072 | 247 ft | 9 kts | 175° |
| 2026-04-21 19:03 | 53.42242 | -6.29005 | 244 ft | 14 kts | 99° |
| 2026-04-21 19:03 | 53.42238 | -6.28920 | 242 ft | 0 kts | 94° |
| 2026-04-21 19:03 | 53.42238 | -6.28914 | 242 ft | 2 kts | 94° |
| 2026-04-21 19:03 | 53.42231 | -6.28776 | 240 ft | 46 kts | 94° |
| 2026-04-21 19:04 | 53.42170 | -6.27635 | 261 ft | 142 kts | 93° |
| 2026-04-21 19:04 | 53.42086 | -6.25882 | 1184 ft | 165 kts | 92° |
| 2026-04-21 19:04 | 53.42018 | -6.24160 | 2651 ft | 152 kts | 96° |
| 2026-04-21 19:04 | 53.41913 | -6.22551 | 3867 ft | 145 kts | 96° |
| 2026-04-21 19:05 | 53.41819 | -6.20977 | 4962 ft | 141 kts | 96° |
| 2026-04-21 19:05 | 53.41731 | -6.19472 | 5446 ft | 149 kts | 96° |
| 2026-04-21 19:05 | 53.41612 | -6.17414 | 5602 ft | 204 kts | 96° |
| 2026-04-21 19:05 | 53.41464 | -6.14805 | 6075 ft | 243 kts | 96° |
| 2026-04-21 19:06 | 53.41303 | -6.11930 | 7069 ft | 258 kts | 95° |
| 2026-04-21 19:06 | 53.41621 | -6.09047 | 8312 ft | 265 kts | 64° |
| 2026-04-21 19:06 | 53.42796 | -6.06731 | 9611 ft | 269 kts | 49° |
| 2026-04-21 19:06 | 53.44125 | -6.04558 | 10807 ft | 271 kts | 48° |
| 2026-04-21 19:07 | 53.45459 | -6.02325 | 11742 ft | 281 kts | 48° |
| 2026-04-21 19:07 | 53.46859 | -5.99924 | 12524 ft | 297 kts | 48° |
| 2026-04-21 19:07 | 53.48325 | -5.97446 | 13197 ft | 304 kts | 42° |
| 2026-04-21 19:07 | 53.50286 | -5.95846 | 13312 ft | 323 kts | 14° |
| 2026-04-21 19:08 | 53.52520 | -5.95371 | 13409 ft | 324 kts | 8° |
| 2026-04-21 19:08 | 53.54733 | -5.95007 | 13787 ft | 324 kts | 8° |
| 2026-04-21 19:08 | 53.57004 | -5.94621 | 14214 ft | 326 kts | 8° |
| 2026-04-21 19:08 | 53.59267 | -5.94225 | 14648 ft | 328 kts | 8° |
| 2026-04-21 19:09 | 53.61536 | -5.93816 | 15082 ft | 330 kts | 8° |
| 2026-04-21 19:09 | 53.63715 | -5.92864 | 15499 ft | 328 kts | 30° |
| 2026-04-21 19:09 | 53.65590 | -5.90681 | 15967 ft | 330 kts | 38° |
| 2026-04-21 19:09 | 53.67421 | -5.88346 | 16409 ft | 333 kts | 38° |
| 2026-04-21 19:10 | 53.69277 | -5.85980 | 16841 ft | 336 kts | 38° |
| 2026-04-21 19:10 | 53.71148 | -5.83591 | 17251 ft | 340 kts | 38° |
| 2026-04-21 19:10 | 53.73070 | -5.81129 | 17343 ft | 355 kts | 38° |
| 2026-04-21 19:10 | 53.75059 | -5.78554 | 17353 ft | 364 kts | 38° |
| 2026-04-21 19:11 | 53.76734 | -5.75452 | 17345 ft | 362 kts | 61° |
| 2026-04-21 19:11 | 53.77507 | -5.71432 | 17373 ft | 360 kts | 78° |
| 2026-04-21 19:11 | 53.78297 | -5.67456 | 17360 ft | 361 kts | 66° |
| 2026-04-21 19:11 | 53.79366 | -5.63630 | 17335 ft | 360 kts | 63° |
| 2026-04-21 19:12 | 53.80112 | -5.61156 | 16995 ft | 355 kts | 62° |
| 2026-04-21 19:12 | 53.81675 | -5.56416 | 16295 ft | 341 kts | 59° |
| 2026-04-21 19:12 | 53.82860 | -5.53028 | 15675 ft | 333 kts | 60° |
| 2026-04-21 19:12 | 53.84012 | -5.49704 | 14970 ft | 328 kts | 61° |
| 2026-04-21 19:13 | 53.85146 | -5.46412 | 14207 ft | 325 kts | 61° |
| 2026-04-21 19:13 | 53.86267 | -5.43152 | 13460 ft | 321 kts | 61° |
| 2026-04-21 19:13 | 53.87379 | -5.39913 | 12741 ft | 317 kts | 61° |
| 2026-04-21 19:13 | 53.88473 | -5.36720 | 12045 ft | 312 kts | 62° |
| 2026-04-21 19:14 | 53.89547 | -5.33581 | 11352 ft | 307 kts | 63° |
| 2026-04-21 19:14 | 53.90593 | -5.30521 | 10665 ft | 303 kts | 63° |
| 2026-04-21 19:14 | 53.91642 | -5.27452 | 10066 ft | 295 kts | 63° |
| 2026-04-21 19:14 | 53.92647 | -5.24505 | 9616 ft | 285 kts | 63° |
| 2026-04-21 19:15 | 53.93614 | -5.21666 | 9161 ft | 276 kts | 63° |
| 2026-04-21 19:15 | 53.94560 | -5.18883 | 8700 ft | 269 kts | 63° |
| 2026-04-21 19:15 | 53.95478 | -5.16181 | 8239 ft | 262 kts | 63° |
| 2026-04-21 19:15 | 53.96377 | -5.13535 | 7794 ft | 257 kts | 63° |
| 2026-04-21 19:16 | 53.97257 | -5.10940 | 7341 ft | 253 kts | 64° |
| 2026-04-21 19:16 | 53.98130 | -5.08361 | 6886 ft | 250 kts | 64° |
| 2026-04-21 19:16 | 53.98982 | -5.05841 | 6472 ft | 248 kts | 64° |
| 2026-04-21 19:16 | 53.99815 | -5.03382 | 6383 ft | 231 kts | 64° |
| 2026-04-21 19:17 | 54.01294 | -4.99003 | 6267 ft | 205 kts | 65° |
| 2026-04-21 19:17 | 54.02004 | -4.96893 | 5934 ft | 205 kts | 65° |
| 2026-04-21 19:17 | 54.02714 | -4.94781 | 5535 ft | 207 kts | 64° |
| 2026-04-21 19:18 | 54.03424 | -4.92672 | 5052 ft | 208 kts | 65° |
| 2026-04-21 19:18 | 54.04135 | -4.90558 | 4547 ft | 205 kts | 65° |
| 2026-04-21 19:18 | 54.04829 | -4.88490 | 4052 ft | 203 kts | 65° |
| 2026-04-21 19:18 | 54.05522 | -4.86426 | 3548 ft | 201 kts | 65° |
| 2026-04-21 19:19 | 54.06173 | -4.84350 | 3054 ft | 196 kts | 71° |
| 2026-04-21 19:19 | 54.06437 | -4.82219 | 2871 ft | 173 kts | 88° |
| 2026-04-21 19:19 | 54.06430 | -4.80252 | 2602 ft | 162 kts | 91° |
| 2026-04-21 19:19 | 54.06456 | -4.78429 | 2375 ft | 151 kts | 85° |
| 2026-04-21 19:20 | 54.06605 | -4.76719 | 2179 ft | 140 kts | 83° |
| 2026-04-21 19:20 | 54.06778 | -4.75150 | 2059 ft | 122 kts | 80° |
| 2026-04-21 19:20 | 54.06950 | -4.73801 | 1990 ft | 115 kts | 82° |
| 2026-04-21 19:20 | 54.07104 | -4.72480 | 1854 ft | 112 kts | 81° |
| 2026-04-21 19:21 | 54.07262 | -4.71261 | 1578 ft | 103 kts | 80° |
| 2026-04-21 19:21 | 54.07394 | -4.70088 | 1222 ft | 101 kts | 82° |
| 2026-04-21 19:21 | 54.07525 | -4.68939 | 898 ft | 99 kts | 79° |
| 2026-04-21 19:21 | 54.07672 | -4.67809 | 630 ft | 99 kts | 79° |
| 2026-04-21 19:22 | 54.07806 | -4.66653 | 446 ft | 100 kts | 79° |
| 2026-04-21 19:22 | 54.07951 | -4.65498 | 279 ft | 103 kts | 79° |
| 2026-04-21 19:22 | 54.08093 | -4.64284 | 159 ft | 105 kts | 79° |
| 2026-04-21 19:22 | 54.08244 | -4.63063 | 47 ft | 100 kts | 76° |
| 2026-04-21 19:23 | 54.08364 | -4.62091 | 38 ft | 62 kts | 77° |
| 2026-04-21 19:23 | 54.08432 | -4.61585 | 40 ft | 32 kts | 80° |
| 2026-04-21 19:23 | 54.08473 | -4.61427 | 42 ft | 10 kts | 8° |
| 2026-04-21 19:23 | 54.08528 | -4.61473 | 45 ft | 8 kts | 300° |
| 2026-04-21 19:24 | 54.08538 | -4.61581 | 45 ft | 10 kts | 275° |
| 2026-04-21 19:24 | 54.08547 | -4.61716 | 45 ft | 12 kts | 275° |
| 2026-04-21 19:24 | 54.08551 | -4.61882 | 45 ft | 15 kts | 263° |
| 2026-04-21 19:24 | 54.08529 | -4.62070 | 45 ft | 17 kts | 257° |
| 2026-04-21 19:25 | 54.08504 | -4.62275 | 46 ft | 18 kts | 259° |
| 2026-04-21 19:25 | 54.08476 | -4.62503 | 48 ft | 20 kts | 258° |
| 2026-04-21 19:25 | 54.08445 | -4.62748 | 49 ft | 21 kts | 257° |
| 2026-04-21 19:25 | 54.08421 | -4.62967 | 52 ft | 10 kts | 281° |
| 2026-04-21 19:26 | 54.08451 | -4.62994 | 53 ft | 6 kts | 349° |
| 2026-04-21 19:26 | 54.08514 | -4.63014 | 57 ft | 12 kts | 349° |
| 2026-04-21 19:26 | 54.08597 | -4.63076 | 60 ft | 13 kts | 314° |
| 2026-04-21 19:26 | 54.08651 | -4.63168 | 62 ft | 6 kts | 320° |
| 2026-04-21 19:27 | 54.08675 | -4.63176 | 63 ft | 3 kts | 27° |
| 2026-04-21 19:27 | 54.08688 | -4.63161 | 64 ft | 1 kts | 40° |
| 2026-04-21 19:27 | 54.08696 | -4.63148 | 64 ft | 0 kts | 43° |